Time;durP1;ratioP1;P1;durP2;ratioP2;P2;SDS_P1;SDS_P2;PMS_P1;PMS_P2;Temp;Humidity;BMP_temperature;BMP_pressure;BME280_temperature;BME280_humidity;BME280_pressure;Samples;Min_cycle;Max_cycle;Signal;HPM_P1;HPM_P2
2024/04/22 00:04:01;;;;;;;3.60;1.90;;;5.60;1.00;;;;;;21696023;27;21529;-77
2024/04/22 00:14:02;;;;;;;4.40;2.60;;;5.40;1.00;;;;;;21702540;27;20022;-76
2024/04/22 00:24:05;;;;;;;5.72;2.42;;;5.20;1.00;;;;;;21721627;27;20010;-75
2024/04/22 00:34:08;;;;;;;4.38;2.63;;;5.20;1.00;;;;;;21724496;27;20677;-77
2024/04/22 00:44:09;;;;;;;3.45;2.40;;;5.20;1.00;;;;;;21702048;27;20018;-78
2024/04/22 00:54:10;;;;;;;4.00;2.55;;;5.10;1.00;;;;;;21723278;27;20034;-79
2024/04/22 01:04:11;;;;;;;4.93;2.47;;;5.00;1.00;;;;;;21705339;27;20013;-78
2024/04/22 01:14:12;;;;;;;4.82;2.70;;;5.00;4.70;;;;;;21732812;27;20450;-79
2024/04/22 01:24:14;;;;;;;5.78;2.65;;;4.90;6.80;;;;;;21713777;27;20307;-78
2024/04/22 01:34:15;;;;;;;5.57;2.67;;;4.80;9.30;;;;;;21729169;26;20049;-77
2024/04/22 01:44:16;;;;;;;4.65;2.72;;;4.80;14.20;;;;;;21710530;27;20007;-78
2024/04/22 01:54:17;;;;;;;5.45;2.83;;;4.70;15.60;;;;;;21710436;27;20546;-78
2024/04/22 02:04:18;;;;;;;5.10;2.55;;;4.60;18.90;;;;;;21706483;27;20014;-78
2024/04/22 02:14:19;;;;;;;6.20;2.78;;;4.60;24.60;;;;;;21696492;27;19999;-79
2024/04/22 02:24:20;;;;;;;3.72;2.45;;;4.50;24.80;;;;;;21706662;27;20011;-78
2024/04/22 02:34:22;;;;;;;6.28;2.35;;;4.40;22.50;;;;;;21709528;27;20002;-78
2024/04/22 02:44:24;;;;;;;4.50;2.20;;;4.30;25.80;;;;;;21728875;27;20003;-79
2024/04/22 02:54:28;;;;;;;4.03;1.95;;;4.30;26.90;;;;;;21725438;27;20011;-78
2024/04/22 03:04:29;;;;;;;5.05;2.38;;;4.40;27.40;;;;;;21722562;27;20017;-77
2024/04/22 03:14:30;;;;;;;3.15;1.20;;;4.50;29.00;;;;;;21724049;27;20387;-77
2024/04/22 03:24:31;;;;;;;5.50;1.27;;;4.80;21.90;;;;;;21724833;27;20568;-76
2024/04/22 03:34:32;;;;;;;2.45;1.08;;;5.10;8.30;;;;;;21726552;26;20007;-76
2024/04/22 03:44:33;;;;;;;2.83;0.90;;;5.30;1.00;;;;;;21723288;27;20019;-77
2024/04/22 03:54:34;;;;;;;2.03;1.10;;;5.40;1.00;;;;;;21720435;27;20095;-76
2024/04/22 04:04:35;;;;;;;2.92;0.70;;;5.40;1.00;;;;;;21698756;27;19998;-76
2024/04/22 04:14:36;;;;;;;2.75;1.00;;;5.30;1.00;;;;;;21704608;27;19999;-80
2024/04/22 04:24:37;;;;;;;4.22;1.10;;;5.20;1.00;;;;;;21719091;27;20450;-81
2024/04/22 04:34:40;;;;;;;5.35;1.15;;;5.10;1.00;;;;;;21716474;27;20013;-79
2024/04/22 04:44:41;;;;;;;4.05;1.38;;;5.00;1.00;;;;;;21880396;27;20026;-79
2024/04/22 04:54:42;;;;;;;4.00;0.90;;;4.90;1.00;;;;;;21872229;26;20046;-80
2024/04/22 05:04:43;;;;;;;2.40;0.95;;;4.80;1.00;;;;;;21864810;26;20837;-81
2024/04/22 05:14:44;;;;;;;3.40;1.10;;;4.80;1.00;;;;;;21873003;27;20220;-80
2024/04/22 05:24:45;;;;;;;3.58;1.02;;;4.80;3.10;;;;;;21868915;27;20013;-78
2024/04/22 05:45:05;;;;;;;4.50;1.60;;;4.90;15.30;;;;;;21765903;27;20210;-79
2024/04/22 05:55:08;;;;;;;5.30;1.60;;;5.10;20.10;;;;;;21706929;27;20014;-81
2024/04/22 06:05:09;;;;;;;4.15;1.83;;;5.40;21.00;;;;;;21724659;27;20007;-78
2024/04/22 06:15:10;;;;;;;19.02;10.27;;;5.60;22.10;;;;;;21721252;27;19999;-79
2024/04/22 06:25:11;;;;;;;8.80;4.65;;;5.80;20.60;;;;;;21731313;27;20021;-78
2024/04/22 06:35:12;;;;;;;7.88;2.65;;;6.10;20.10;;;;;;21708229;26;20010;-79
2024/04/22 06:45:14;;;;;;;7.80;2.45;;;6.40;18.50;;;;;;21722596;27;20021;-79
2024/04/22 06:55:15;;;;;;;7.30;2.83;;;6.60;11.20;;;;;;21698808;27;20285;-79
2024/04/22 07:05:16;;;;;;;6.10;2.42;;;6.80;3.80;;;;;;21698623;27;20003;-79
2024/04/22 07:15:19;;;;;;;6.90;3.00;;;7.00;1.00;;;;;;21706537;27;19999;-79
2024/04/22 07:25:20;;;;;;;6.32;2.90;;;7.30;1.00;;;;;;21701316;27;20516;-79
2024/04/22 07:35:21;;;;;;;6.05;3.05;;;7.60;1.00;;;;;;21723125;26;20006;-79
2024/04/22 07:45:24;;;;;;;7.30;2.10;;;8.00;1.00;;;;;;21856848;26;20013;-81
2024/04/22 07:55:25;;;;;;;6.10;2.30;;;8.30;1.00;;;;;;21858331;26;20385;-80
2024/04/22 08:05:27;;;;;;;5.63;2.20;;;8.60;1.00;;;;;;21815261;26;20036;-79
2024/04/22 08:15:28;;;;;;;8.18;2.70;;;8.90;1.00;;;;;;21828855;26;20428;-81
2024/04/22 08:25:29;;;;;;;7.55;2.20;;;9.10;1.00;;;;;;21842923;26;20077;-79
2024/04/22 08:35:30;;;;;;;6.50;1.92;;;9.30;1.00;;;;;;21801113;26;20021;-79
2024/04/22 08:45:31;;;;;;;8.05;2.22;;;9.40;1.00;;;;;;21719402;27;20014;-78
2024/04/22 08:55:32;;;;;;;3.50;1.60;;;9.70;1.00;;;;;;21701835;27;20015;-79
2024/04/22 09:05:34;;;;;;;4.45;1.85;;;9.90;1.00;;;;;;21693429;27;19999;-79
2024/04/22 09:15:35;;;;;;;7.00;1.65;;;10.20;1.00;;;;;;21728774;27;20438;-79
2024/04/22 09:25:36;;;;;;;4.18;1.40;;;10.30;1.00;;;;;;21741586;27;22001;-79
2024/04/22 09:35:38;;;;;;;3.03;1.50;;;9.90;1.00;;;;;;21742333;26;20376;-79
2024/04/22 09:45:41;;;;;;;4.18;1.73;;;9.60;1.00;;;;;;21709019;27;20077;-80
2024/04/22 09:55:44;;;;;;;3.13;1.65;;;8.60;1.00;;;;;;21693829;27;20522;-81
2024/04/22 10:05:46;;;;;;;3.22;1.80;;;9.70;1.00;;;;;;21703647;27;20466;-79
2024/04/22 10:15:47;;;;;;;3.95;1.88;;;10.50;1.00;;;;;;21712709;27;20002;-79
2024/04/22 10:25:48;;;;;;;6.60;1.98;;;10.70;1.00;;;;;;21711093;27;20006;-79
2024/04/22 10:35:49;;;;;;;6.75;2.30;;;10.30;1.00;;;;;;21709306;26;20025;-79
2024/04/22 10:45:50;;;;;;;5.10;2.70;;;10.00;1.00;;;;;;21681783;27;20016;-77
2024/04/22 10:55:51;;;;;;;4.72;2.20;;;10.70;1.00;;;;;;21707083;27;20405;-76
2024/04/22 11:05:59;;;;;;;4.55;2.20;;;10.90;1.00;;;;;;21669183;27;20398;-77
2024/04/22 11:16:07;;;;;;;4.20;2.35;;;10.30;1.00;;;;;;21709378;27;20009;-77
2024/04/22 11:26:10;;;;;;;5.72;2.60;;;10.00;1.00;;;;;;21729667;27;20112;-78
2024/04/22 11:36:12;;;;;;;6.43;2.47;;;10.00;1.00;;;;;;21709471;26;20028;-77
2024/04/22 11:46:14;;;;;;;4.43;1.88;;;10.90;1.00;;;;;;21712197;27;20466;-76
2024/04/22 11:56:15;;;;;;;4.15;2.00;;;12.40;1.00;;;;;;21726994;27;19999;-77
2024/04/22 12:06:16;;;;;;;4.22;1.48;;;13.00;1.00;;;;;;21692129;27;20497;-76
2024/04/22 12:16:17;;;;;;;3.35;1.52;;;12.20;1.00;;;;;;21708632;27;20370;-77
2024/04/22 12:26:18;;;;;;;4.25;1.50;;;12.90;1.00;;;;;;21698899;27;20354;-77
2024/04/22 12:36:19;;;;;;;3.40;1.50;;;13.40;1.00;;;;;;21697921;26;20007;-77
2024/04/22 12:46:20;;;;;;;3.60;1.65;;;12.90;1.00;;;;;;21716692;27;20032;-77
2024/04/22 12:56:21;;;;;;;3.67;1.40;;;12.60;1.00;;;;;;21712445;27;20458;-77
2024/04/22 13:06:22;;;;;;;1.60;0.90;;;13.40;1.00;;;;;;21707042;27;20373;-78
2024/04/22 13:16:23;;;;;;;3.63;1.13;;;13.60;1.00;;;;;;21716123;27;20456;-79
2024/04/22 13:26:24;;;;;;;4.03;1.30;;;14.50;1.00;;;;;;21737488;27;20346;-77
2024/04/22 13:36:25;;;;;;;2.30;1.10;;;13.80;1.00;;;;;;21767992;27;20470;-77
2024/04/22 13:46:26;;;;;;;2.42;0.90;;;13.10;1.00;;;;;;21870336;26;21859;-77
2024/04/22 13:56:30;;;;;;;3.72;0.77;;;14.30;1.00;;;;;;21819583;26;20010;-80
2024/04/22 14:06:31;;;;;;;1.45;0.60;;;14.30;1.00;;;;;;21850866;26;20001;-77
2024/04/22 14:16:32;;;;;;;3.50;0.70;;;13.90;1.00;;;;;;21832926;26;20006;-77
2024/04/22 14:26:33;;;;;;;2.60;0.70;;;13.60;1.00;;;;;;21840022;26;20613;-77
2024/04/22 14:36:34;;;;;;;2.78;0.77;;;13.20;1.00;;;;;;21795574;26;20175;-78
2024/04/22 14:46:35;;;;;;;2.63;0.73;;;13.20;1.00;;;;;;21730700;27;20042;-78
2024/04/22 14:56:36;;;;;;;1.75;0.80;;;13.00;1.00;;;;;;21718151;27;20534;-80
2024/04/22 15:06:39;;;;;;;2.22;0.98;;;12.70;1.00;;;;;;21691896;27;20030;-78
2024/04/22 15:16:40;;;;;;;1.75;0.80;;;12.70;1.00;;;;;;21722778;27;20017;-81
2024/04/22 15:26:41;;;;;;;4.18;1.10;;;11.90;1.00;;;;;;21715915;27;20002;-80
2024/04/22 15:36:42;;;;;;;1.83;0.80;;;11.50;1.00;;;;;;21768138;27;20017;-80
2024/04/22 15:46:43;;;;;;;3.17;1.20;;;11.20;1.00;;;;;;21858202;27;19998;-80
2024/04/22 15:56:44;;;;;;;1.70;0.70;;;11.20;1.00;;;;;;21866200;26;20009;-80
2024/04/22 16:06:45;;;;;;;1.80;0.70;;;11.10;1.00;;;;;;21844243;27;20012;-82
2024/04/22 16:16:46;;;;;;;2.63;1.10;;;10.90;1.00;;;;;;21869292;27;20038;-80
2024/04/22 16:26:47;;;;;;;2.65;0.80;;;10.70;1.00;;;;;;21846421;26;20470;-80
2024/04/22 16:36:48;;;;;;;1.55;0.73;;;10.40;1.00;;;;;;21834601;26;20006;-79
2024/04/22 16:46:49;;;;;;;1.23;0.65;;;10.20;1.00;;;;;;21754496;27;20601;-79
2024/04/22 16:56:50;;;;;;;3.78;1.13;;;9.90;1.00;;;;;;21768060;27;20346;-78
2024/04/22 17:06:51;;;;;;;2.80;1.15;;;9.80;1.00;;;;;;21725766;27;22094;-77
2024/04/22 17:16:52;;;;;;;2.53;1.05;;;9.60;1.00;;;;;;21732398;27;20455;-77
2024/04/22 17:26:54;;;;;;;2.92;1.00;;;9.40;1.00;;;;;;21713728;27;20038;-77
2024/04/22 17:36:55;;;;;;;2.88;1.13;;;9.30;1.00;;;;;;21723048;26;20018;-77
2024/04/22 17:46:57;;;;;;;3.58;1.27;;;9.20;1.00;;;;;;21729273;27;20288;-77
2024/04/22 17:56:58;;;;;;;2.22;0.95;;;9.00;1.00;;;;;;21657595;27;20474;-79
2024/04/22 18:06:59;;;;;;;2.90;0.88;;;8.90;1.00;;;;;;21729806;27;20007;-78
2024/04/22 18:17:00;;;;;;;9.50;5.40;;;8.70;1.00;;;;;;21733184;27;20020;-77
2024/04/22 18:27:01;;;;;;;2.03;1.02;;;8.40;1.00;;;;;;21729120;27;19999;-77
2024/04/22 18:37:02;;;;;;;1.95;0.95;;;8.30;1.00;;;;;;21712147;26;20002;-80
2024/04/22 18:47:03;;;;;;;2.80;1.13;;;8.20;1.00;;;;;;21737740;27;20006;-77
2024/04/22 18:57:05;;;;;;;2.03;1.00;;;8.00;1.00;;;;;;21733784;27;20010;-78
2024/04/22 19:07:06;;;;;;;2.13;0.80;;;7.80;1.00;;;;;;21701361;27;20018;-78
2024/04/22 19:17:09;;;;;;;3.03;1.00;;;7.60;1.00;;;;;;21710429;27;20482;-79
2024/04/22 19:27:10;;;;;;;2.30;1.08;;;7.50;1.00;;;;;;21696289;27;20010;-78
2024/04/22 19:37:11;;;;;;;2.63;1.02;;;7.30;1.00;;;;;;21714256;27;20830;-77
2024/04/22 19:47:12;;;;;;;2.33;1.10;;;7.20;1.00;;;;;;21694620;27;20501;-76
2024/04/22 19:57:14;;;;;;;2.22;1.00;;;7.00;1.00;;;;;;21697938;27;20026;-76
2024/04/22 20:07:15;;;;;;;3.10;1.10;;;7.00;1.00;;;;;;21707188;27;20662;-77
2024/04/22 20:17:18;;;;;;;2.35;0.90;;;6.80;1.00;;;;;;21700536;27;20413;-76
2024/04/22 20:27:19;;;;;;;1.70;0.90;;;6.80;1.00;;;;;;21711489;27;20010;-77
2024/04/22 20:37:20;;;;;;;2.20;1.10;;;6.60;1.00;;;;;;21752588;26;20013;-76
2024/04/22 20:47:21;;;;;;;2.65;1.33;;;6.40;1.00;;;;;;21843863;26;20247;-77
2024/04/22 20:57:22;;;;;;;3.05;1.08;;;6.20;1.00;;;;;;21823304;26;20021;-79
2024/04/22 21:07:23;;;;;;;2.47;1.13;;;6.10;1.00;;;;;;21809553;26;19994;-79
2024/04/22 21:17:24;;;;;;;3.30;1.30;;;6.00;1.00;;;;;;21835369;26;20014;-77
2024/04/22 21:27:25;;;;;;;4.65;1.00;;;5.90;1.00;;;;;;21838721;26;20484;-78
2024/04/22 21:37:26;;;;;;;4.50;1.23;;;5.80;1.00;;;;;;21838049;26;19998;-78
2024/04/22 21:47:28;;;;;;;2.70;1.17;;;5.70;1.00;;;;;;21876215;26;20523;-78
2024/04/22 21:58:06;;;;;;;3.90;1.27;;;5.60;1.00;;;;;;21861316;27;20017;-78
2024/04/22 22:08:08;;;;;;;2.50;1.10;;;5.50;1.00;;;;;;21886692;26;19993;-78
2024/04/22 22:18:09;;;;;;;2.58;1.10;;;5.40;1.00;;;;;;21867687;26;20006;-77
2024/04/22 22:28:10;;;;;;;4.35;1.67;;;5.30;1.00;;;;;;21868054;26;20008;-77
2024/04/22 22:38:11;;;;;;;3.05;1.30;;;5.10;1.00;;;;;;21851230;26;20038;-78
2024/04/22 22:48:12;;;;;;;2.28;1.30;;;5.00;1.00;;;;;;21873333;26;20002;-78
2024/04/22 22:58:13;;;;;;;2.33;1.38;;;5.00;1.00;;;;;;21847449;26;20002;-78
2024/04/22 23:08:14;;;;;;;4.90;1.77;;;4.90;1.00;;;;;;21865669;26;20579;-78
2024/04/22 23:18:15;;;;;;;4.05;2.13;;;4.90;1.00;;;;;;21879522;26;20613;-77
2024/04/22 23:28:16;;;;;;;5.88;1.88;;;4.90;1.00;;;;;;21873915;26;20002;-78
2024/04/22 23:38:17;;;;;;;3.90;2.05;;;4.90;1.00;;;;;;21876882;26;20001;-77
2024/04/22 23:48:18;;;;;;;4.30;1.90;;;4.80;1.00;;;;;;21867980;26;20024;-77
2024/04/22 23:58:19;;;;;;;6.55;2.08;;;4.70;1.00;;;;;;21847042;26;20646;-76
